Time;durP1;ratioP1;P1;durP2;ratioP2;P2;SDS_P1;SDS_P2;PMS_P1;PMS_P2;Temp;Humidity;BMP_temperature;BMP_pressure;BME280_temperature;BME280_humidity;BME280_pressure;Samples;Min_cycle;Max_cycle;Signal;HPM_P1;HPM_P2
2022/09/29 00:00:14;;;;;;;0.40;0.40;;;8.90;99.90;;;;;;5091761;28;20221;-47
2022/09/29 00:02:41;;;;;;;0.50;0.50;;;9.00;99.90;;;;;;5086351;28;20282;-48
2022/09/29 00:05:09;;;;;;;1.00;0.60;;;9.00;99.90;;;;;;5090551;28;20202;-48
2022/09/29 00:07:36;;;;;;;0.47;0.47;;;8.90;99.90;;;;;;5088418;28;20256;-48
2022/09/29 00:10:03;;;;;;;1.10;0.50;;;9.00;99.90;;;;;;5071767;28;20287;-49
2022/09/29 00:12:30;;;;;;;0.67;0.67;;;9.00;99.90;;;;;;5078913;28;20295;-48
2022/09/29 00:14:58;;;;;;;0.67;0.60;;;9.00;99.90;;;;;;5091108;28;20219;-48
2022/09/29 00:17:25;;;;;;;0.97;0.67;;;9.00;99.90;;;;;;5092009;28;20299;-48
2022/09/29 00:19:53;;;;;;;0.83;0.63;;;9.10;99.90;;;;;;5091896;28;20227;-48
2022/09/29 00:22:20;;;;;;;0.60;0.60;;;9.00;99.90;;;;;;5083755;28;20204;-48
2022/09/29 00:24:47;;;;;;;1.60;0.60;;;9.00;99.90;;;;;;5089453;28;20194;-49
2022/09/29 00:27:14;;;;;;;0.60;0.60;;;9.00;99.90;;;;;;5092040;28;20260;-48
2022/09/29 00:29:41;;;;;;;0.90;0.90;;;9.00;99.90;;;;;;5091821;28;20584;-48
2022/09/29 00:32:10;;;;;;;0.60;0.60;;;8.90;99.90;;;;;;5089830;28;20652;-48
2022/09/29 00:34:37;;;;;;;0.60;0.60;;;8.90;99.90;;;;;;5091236;28;20227;-50
2022/09/29 00:37:05;;;;;;;1.00;1.00;;;8.90;99.90;;;;;;5091791;28;20214;-48
2022/09/29 00:39:32;;;;;;;0.93;0.60;;;8.90;99.90;;;;;;5089160;28;20712;-48
2022/09/29 00:41:59;;;;;;;0.60;0.60;;;8.90;99.90;;;;;;5087278;28;20245;-48
2022/09/29 00:45:08;;;;;;;1.20;0.77;;;8.90;99.90;;;;;;5091470;28;20568;-49
2022/09/29 00:47:39;;;;;;;0.90;0.90;;;8.90;99.90;;;;;;5086122;28;20208;-49
2022/09/29 00:50:14;;;;;;;1.13;1.13;;;8.90;99.90;;;;;;5090452;28;20287;-48
2022/09/29 00:52:44;;;;;;;0.80;0.70;;;8.80;99.90;;;;;;5090499;28;20261;-48
2022/09/29 00:55:16;;;;;;;0.97;0.97;;;8.80;99.90;;;;;;5091390;28;20219;-48
2022/09/29 00:57:47;;;;;;;0.77;0.77;;;8.80;99.90;;;;;;5086418;28;20290;-48
2022/09/29 01:00:15;;;;;;;0.97;0.97;;;8.80;99.90;;;;;;5095448;28;20233;-48
2022/09/29 01:02:49;;;;;;;0.77;0.77;;;8.80;99.90;;;;;;5093691;28;20276;-49
2022/09/29 01:05:19;;;;;;;0.90;0.90;;;8.80;99.90;;;;;;5095203;28;20191;-48
2022/09/29 01:07:47;;;;;;;0.87;0.87;;;8.80;99.90;;;;;;5095363;28;20297;-48
2022/09/29 01:10:16;;;;;;;1.00;1.00;;;8.80;99.90;;;;;;5095210;28;20228;-48
2022/09/29 01:12:46;;;;;;;0.93;0.93;;;8.80;99.90;;;;;;5084383;28;20228;-49
2022/09/29 01:15:15;;;;;;;2.10;1.10;;;8.80;99.90;;;;;;5093550;28;20622;-48
2022/09/29 01:17:42;;;;;;;1.80;1.03;;;8.80;99.90;;;;;;5086789;28;20210;-50
2022/09/29 01:20:14;;;;;;;0.90;0.90;;;8.80;99.90;;;;;;5095112;28;20281;-48
2022/09/29 01:23:20;;;;;;;1.80;1.70;;;8.80;99.90;;;;;;5093935;28;20207;-48
2022/09/29 01:26:26;;;;;;;2.10;1.37;;;8.70;99.90;;;;;;5095034;28;20243;-48
2022/09/29 01:29:17;;;;;;;1.60;1.50;;;8.70;99.90;;;;;;5090151;28;20230;-48
2022/09/29 01:31:56;;;;;;;1.37;0.90;;;8.70;99.90;;;;;;5086448;28;20203;-48
2022/09/29 01:34:33;;;;;;;1.70;1.60;;;8.70;99.90;;;;;;5089216;28;20222;-48
2022/09/29 01:37:10;;;;;;;1.53;1.43;;;8.70;99.90;;;;;;5094853;28;20266;-48
2022/09/29 01:39:42;;;;;;;0.73;0.73;;;8.70;99.90;;;;;;5094939;28;20308;-48
2022/09/29 01:42:17;;;;;;;1.10;0.90;;;8.80;99.90;;;;;;5086644;28;20258;-48
2022/09/29 01:44:50;;;;;;;1.10;0.60;;;8.70;99.90;;;;;;5094496;28;20203;-48
2022/09/29 01:47:22;;;;;;;0.93;0.93;;;8.70;99.90;;;;;;5094684;28;20209;-48
2022/09/29 01:49:55;;;;;;;1.30;1.20;;;8.70;99.90;;;;;;5094567;28;20229;-49
2022/09/29 01:52:25;;;;;;;0.80;0.80;;;8.70;99.90;;;;;;5092688;28;20202;-49
2022/09/29 01:54:59;;;;;;;0.87;0.87;;;8.70;99.90;;;;;;5094115;28;20222;-49
2022/09/29 01:57:29;;;;;;;0.80;0.80;;;8.70;99.90;;;;;;5089342;28;20202;-49
2022/09/29 02:00:02;;;;;;;1.37;1.20;;;8.70;99.90;;;;;;5094186;28;20713;-49
2022/09/29 02:02:36;;;;;;;1.40;1.30;;;8.70;99.90;;;;;;5091900;28;20207;-48
2022/09/29 02:05:07;;;;;;;1.13;1.03;;;8.70;99.90;;;;;;5086081;28;20244;-48
2022/09/29 02:07:38;;;;;;;1.30;1.30;;;8.70;99.90;;;;;;5093952;28;20259;-48
2022/09/29 02:10:12;;;;;;;1.20;1.20;;;8.70;99.90;;;;;;5093714;28;20226;-48
2022/09/29 02:12:41;;;;;;;2.40;1.00;;;8.70;99.90;;;;;;5088181;28;20197;-48
2022/09/29 02:15:12;;;;;;;1.33;1.33;;;8.60;99.90;;;;;;5093657;28;20206;-48
2022/09/29 02:17:44;;;;;;;1.00;1.00;;;8.60;99.90;;;;;;5093998;28;20260;-49
2022/09/29 02:20:13;;;;;;;1.27;1.13;;;8.60;99.90;;;;;;5094190;28;20226;-49
2022/09/29 02:22:40;;;;;;;1.13;0.90;;;8.60;99.90;;;;;;5091505;28;20650;-50
2022/09/29 02:25:10;;;;;;;1.80;1.37;;;8.60;99.90;;;;;;5093702;28;20260;-50
2022/09/29 02:27:38;;;;;;;1.43;1.43;;;8.60;99.90;;;;;;5093831;28;20294;-48
2022/09/29 02:30:07;;;;;;;2.20;1.60;;;8.60;99.90;;;;;;5087504;28;20226;-48
2022/09/29 02:32:35;;;;;;;1.90;1.63;;;8.60;99.90;;;;;;5088505;28;20203;-48
2022/09/29 02:35:07;;;;;;;1.40;1.40;;;8.60;99.90;;;;;;5085269;28;20211;-48
2022/09/29 02:37:47;;;;;;;1.50;1.40;;;8.60;99.90;;;;;;5090977;28;20256;-48
2022/09/29 02:40:27;;;;;;;2.20;2.10;;;8.60;99.90;;;;;;5091600;28;20707;-48
2022/09/29 02:43:10;;;;;;;2.17;2.07;;;8.60;99.90;;;;;;5088361;28;20245;-49
2022/09/29 02:45:45;;;;;;;2.17;2.07;;;8.60;99.90;;;;;;5092038;28;20190;-48
2022/09/29 02:48:31;;;;;;;2.50;2.40;;;8.60;99.90;;;;;;5079490;28;20242;-48
2022/09/29 02:51:17;;;;;;;2.10;2.00;;;8.60;99.90;;;;;;5092674;28;20259;-48
2022/09/29 02:54:01;;;;;;;2.00;2.00;;;8.60;99.90;;;;;;5083587;28;20204;-48
2022/09/29 02:56:38;;;;;;;2.27;2.17;;;8.50;99.90;;;;;;5093214;28;20252;-48
2022/09/29 02:59:10;;;;;;;1.60;1.57;;;8.60;99.90;;;;;;5088460;28;20214;-49
2022/09/29 03:01:48;;;;;;;2.60;2.40;;;8.60;99.90;;;;;;5093289;28;20262;-49
2022/09/29 03:04:15;;;;;;;3.10;2.90;;;8.60;99.90;;;;;;5084396;28;20281;-48
2022/09/29 03:06:43;;;;;;;3.33;3.23;;;8.70;99.90;;;;;;5075222;28;20278;-50
2022/09/29 03:09:10;;;;;;;3.10;2.90;;;8.70;99.90;;;;;;5092834;28;20217;-48
2022/09/29 03:11:37;;;;;;;2.20;2.20;;;8.60;99.90;;;;;;5092831;28;20198;-47
2022/09/29 03:14:05;;;;;;;2.33;2.23;;;8.70;99.90;;;;;;5092602;28;20641;-48
2022/09/29 03:16:32;;;;;;;2.20;2.10;;;8.70;99.90;;;;;;5093221;28;20218;-47
2022/09/29 03:18:59;;;;;;;2.43;2.33;;;8.70;99.90;;;;;;5092693;28;20226;-48
2022/09/29 03:21:27;;;;;;;3.10;2.90;;;8.60;99.90;;;;;;5082883;28;20252;-48
2022/09/29 03:23:55;;;;;;;2.57;2.47;;;8.60;99.90;;;;;;5092394;28;20191;-48
2022/09/29 03:26:23;;;;;;;2.73;2.63;;;8.60;99.90;;;;;;5092650;28;20256;-49
2022/09/29 03:28:50;;;;;;;2.93;2.83;;;8.70;99.90;;;;;;5092847;28;20226;-48
2022/09/29 03:31:16;;;;;;;2.37;2.27;;;8.70;99.90;;;;;;5092851;28;20202;-48
2022/09/29 03:33:44;;;;;;;3.20;2.20;;;8.70;99.90;;;;;;5092455;28;20255;-48
2022/09/29 03:36:11;;;;;;;2.20;1.80;;;8.70;99.90;;;;;;5087250;28;20219;-48
2022/09/29 03:38:38;;;;;;;2.33;2.23;;;8.70;99.90;;;;;;5085461;28;20657;-48
2022/09/29 03:41:07;;;;;;;2.90;2.70;;;8.70;99.90;;;;;;5092250;28;20244;-49
2022/09/29 03:43:34;;;;;;;2.90;2.80;;;8.70;99.90;;;;;;5092304;28;20202;-48
2022/09/29 03:46:01;;;;;;;2.53;2.33;;;8.70;99.90;;;;;;5092310;28;20206;-49
2022/09/29 03:48:34;;;;;;;2.27;2.17;;;8.60;99.90;;;;;;5091228;28;20233;-49
2022/09/29 03:51:02;;;;;;;2.43;2.33;;;8.70;99.90;;;;;;5072023;28;20225;-48
2022/09/29 03:53:30;;;;;;;3.47;3.27;;;8.70;99.90;;;;;;5079464;28;20379;-48
2022/09/29 03:55:56;;;;;;;2.40;2.30;;;8.70;99.90;;;;;;5088225;28;20709;-48
2022/09/29 03:58:25;;;;;;;3.37;2.73;;;8.70;99.90;;;;;;5092263;28;20282;-48
2022/09/29 04:00:52;;;;;;;2.90;2.70;;;8.70;99.90;;;;;;5085180;28;20204;-48
2022/09/29 04:03:20;;;;;;;2.83;2.73;;;8.70;99.90;;;;;;5085879;28;20698;-49
2022/09/29 04:05:47;;;;;;;3.27;3.07;;;8.70;99.90;;;;;;5091970;28;20206;-49
2022/09/29 04:08:15;;;;;;;2.83;2.73;;;8.70;99.90;;;;;;5091984;28;20206;-48
2022/09/29 04:10:42;;;;;;;3.43;3.33;;;8.70;99.90;;;;;;5086284;28;20259;-49
2022/09/29 04:13:09;;;;;;;3.27;3.07;;;8.70;99.90;;;;;;5086039;28;20248;-49
2022/09/29 04:15:38;;;;;;;3.37;3.17;;;8.70;99.90;;;;;;5085976;28;20231;-48
2022/09/29 04:18:06;;;;;;;2.97;2.87;;;8.70;99.90;;;;;;5084004;28;20194;-48
2022/09/29 04:20:33;;;;;;;4.07;3.87;;;8.70;99.90;;;;;;5090223;28;20207;-48
2022/09/29 04:23:00;;;;;;;3.40;3.20;;;8.70;99.90;;;;;;5084442;28;20244;-48
2022/09/29 04:25:27;;;;;;;3.50;3.40;;;8.70;99.90;;;;;;5082000;28;20197;-48
2022/09/29 04:27:54;;;;;;;3.57;3.37;;;8.60;99.90;;;;;;5076112;28;20614;-49
2022/09/29 04:30:21;;;;;;;3.43;3.13;;;8.60;99.90;;;;;;5082602;28;20226;-49
2022/09/29 04:32:50;;;;;;;3.27;3.17;;;8.70;99.90;;;;;;5094989;28;20195;-48
2022/09/29 04:35:17;;;;;;;4.03;3.83;;;8.70;99.90;;;;;;5093486;28;20689;-48
2022/09/29 04:37:44;;;;;;;4.37;4.10;;;8.70;99.90;;;;;;5095638;28;20668;-49
2022/09/29 04:40:11;;;;;;;4.13;3.93;;;8.60;99.90;;;;;;5096127;28;20228;-48
2022/09/29 04:42:38;;;;;;;4.67;4.37;;;8.70;99.90;;;;;;5084489;28;20249;-48
2022/09/29 04:45:06;;;;;;;4.17;3.90;;;8.70;99.90;;;;;;5076722;28;20251;-48
2022/09/29 04:47:34;;;;;;;4.30;4.00;;;8.70;99.90;;;;;;5093177;28;20225;-48
2022/09/29 04:50:02;;;;;;;5.83;4.13;;;8.70;99.90;;;;;;5091486;28;20293;-48
2022/09/29 04:52:29;;;;;;;3.97;3.67;;;8.80;99.90;;;;;;5083955;28;20301;-48
2022/09/29 04:54:56;;;;;;;8.93;4.80;;;8.70;99.90;;;;;;5084398;28;20226;-50
2022/09/29 04:57:23;;;;;;;5.40;5.00;;;8.70;99.90;;;;;;5090996;28;20210;-48
2022/09/29 04:59:50;;;;;;;5.50;5.10;;;8.70;99.90;;;;;;5088320;28;20227;-49
2022/09/29 05:02:18;;;;;;;5.80;5.30;;;8.70;99.90;;;;;;5089376;28;20583;-48
2022/09/29 05:04:46;;;;;;;5.90;5.40;;;8.70;99.90;;;;;;5092753;28;20654;-48
2022/09/29 05:07:15;;;;;;;6.13;5.53;;;8.60;99.90;;;;;;5085535;28;20199;-48
2022/09/29 05:09:42;;;;;;;7.37;6.47;;;8.60;99.90;;;;;;5074864;28;20223;-48
2022/09/29 05:12:09;;;;;;;7.33;6.70;;;8.60;99.90;;;;;;5075223;28;20207;-48
2022/09/29 05:14:36;;;;;;;7.37;6.77;;;8.60;99.90;;;;;;5074945;28;20291;-47
2022/09/29 05:17:03;;;;;;;6.27;5.30;;;8.70;99.90;;;;;;5080482;28;20243;-48
2022/09/29 05:19:31;;;;;;;5.00;4.67;;;8.60;99.90;;;;;;5086959;28;20219;-49
2022/09/29 05:21:59;;;;;;;4.33;4.03;;;8.70;99.90;;;;;;5082405;28;20275;-48
2022/09/29 05:24:28;;;;;;;4.80;4.37;;;8.60;99.90;;;;;;5094918;28;20211;-48
2022/09/29 05:26:55;;;;;;;5.13;4.80;;;8.70;99.90;;;;;;5093595;28;20199;-48
2022/09/29 05:29:22;;;;;;;4.67;4.23;;;8.70;99.90;;;;;;5094901;28;20218;-48
2022/09/29 05:31:49;;;;;;;3.90;3.60;;;8.60;99.90;;;;;;5094670;28;20797;-48
2022/09/29 05:34:17;;;;;;;5.00;4.50;;;8.70;99.90;;;;;;5090319;28;20206;-49
2022/09/29 05:36:44;;;;;;;5.33;4.97;;;8.70;99.90;;;;;;5082518;28;20700;-48
2022/09/29 05:39:11;;;;;;;8.32;7.68;;;8.70;99.90;;;;;;5088422;28;20449;-48
2022/09/29 05:41:40;;;;;;;8.90;8.10;;;8.70;99.90;;;;;;5092713;28;20206;-49
2022/09/29 05:44:07;;;;;;;8.43;7.70;;;8.70;99.90;;;;;;5079670;28;20688;-49
2022/09/29 05:46:34;;;;;;;7.77;6.97;;;8.80;99.90;;;;;;5087265;28;20192;-48
2022/09/29 05:49:02;;;;;;;7.87;7.07;;;8.70;99.90;;;;;;5084948;28;20222;-48
2022/09/29 05:51:29;;;;;;;7.67;6.90;;;8.80;99.90;;;;;;5075029;28;20199;-48
2022/09/29 05:53:56;;;;;;;7.43;6.83;;;8.80;99.90;;;;;;5071429;28;20215;-48
2022/09/29 05:56:24;;;;;;;7.77;6.97;;;8.80;99.90;;;;;;5079468;28;20321;-48
2022/09/29 05:58:53;;;;;;;7.87;7.07;;;8.80;99.90;;;;;;5085179;28;20230;-48
2022/09/29 06:01:22;;;;;;;6.03;5.47;;;8.90;99.90;;;;;;5070349;28;20681;-48
2022/09/29 06:03:51;;;;;;;5.43;5.03;;;8.90;99.90;;;;;;5071193;28;20203;-48
2022/09/29 06:06:20;;;;;;;6.90;6.33;;;8.90;99.90;;;;;;5081888;28;20253;-49
2022/09/29 06:08:49;;;;;;;6.13;5.00;;;9.00;99.90;;;;;;5082423;28;20222;-50
2022/09/29 06:11:18;;;;;;;4.73;4.43;;;9.00;99.90;;;;;;5089091;28;20273;-48
2022/09/29 06:13:47;;;;;;;5.13;4.77;;;9.00;99.90;;;;;;5086207;28;20567;-48
2022/09/29 06:16:17;;;;;;;5.27;4.97;;;9.00;99.90;;;;;;5082406;28;20628;-48
2022/09/29 06:18:44;;;;;;;5.53;4.93;;;9.00;99.90;;;;;;5076750;28;20269;-48
2022/09/29 06:21:13;;;;;;;5.50;5.07;;;9.00;99.90;;;;;;5073731;28;20273;-48
2022/09/29 06:23:41;;;;;;;6.30;5.40;;;9.00;99.90;;;;;;5073423;28;20541;-48
2022/09/29 06:26:11;;;;;;;6.37;5.77;;;9.00;99.90;;;;;;5073405;28;20207;-49
2022/09/29 06:28:38;;;;;;;7.27;6.57;;;9.00;99.90;;;;;;5086447;28;20222;-49
2022/09/29 06:31:08;;;;;;;5.60;5.10;;;9.00;99.90;;;;;;5092828;28;20199;-49
2022/09/29 06:33:39;;;;;;;6.03;5.50;;;9.00;99.90;;;;;;5093441;28;20215;-48
2022/09/29 06:38:58;;;;;;;3.40;3.20;;;9.10;99.90;;;;;;5093421;28;20300;-48
2022/09/29 06:41:27;;;;;;;3.93;3.63;;;9.10;99.90;;;;;;5093180;28;20206;-49
2022/09/29 06:43:54;;;;;;;3.47;3.23;;;9.10;99.90;;;;;;5084275;28;20204;-47
2022/09/29 06:46:21;;;;;;;3.80;3.60;;;9.10;99.90;;;;;;5088905;28;20199;-49
2022/09/29 06:48:49;;;;;;;3.23;3.13;;;9.10;99.90;;;;;;5092143;28;20804;-48
2022/09/29 06:51:16;;;;;;;4.00;3.53;;;9.10;99.90;;;;;;5093217;28;20298;-49
2022/09/29 06:53:44;;;;;;;3.33;3.13;;;9.00;99.90;;;;;;5092535;28;20813;-48
2022/09/29 06:56:11;;;;;;;3.17;3.07;;;9.00;99.90;;;;;;5092964;28;20254;-48
2022/09/29 06:58:38;;;;;;;5.20;4.90;;;9.10;99.90;;;;;;5093137;28;20230;-49
2022/09/29 07:01:05;;;;;;;5.23;4.90;;;9.10;99.90;;;;;;5091697;28;20202;-49
2022/09/29 07:03:34;;;;;;;4.77;4.50;;;9.10;99.90;;;;;;5081584;28;20659;-49
2022/09/29 07:06:04;;;;;;;5.33;4.87;;;9.20;99.90;;;;;;5079691;28;20199;-48
2022/09/29 07:08:34;;;;;;;8.30;5.20;;;9.20;99.90;;;;;;5085516;28;20762;-47
2022/09/29 07:11:01;;;;;;;6.37;4.87;;;9.20;99.90;;;;;;5091402;28;20202;-48
2022/09/29 07:13:28;;;;;;;5.40;5.00;;;9.20;99.90;;;;;;5074605;28;20246;-49
2022/09/29 07:15:56;;;;;;;5.10;4.80;;;9.30;99.90;;;;;;5084754;28;20706;-48
2022/09/29 07:18:23;;;;;;;4.37;4.07;;;9.40;99.90;;;;;;5085195;28;20714;-48
2022/09/29 07:20:50;;;;;;;4.07;3.77;;;9.40;99.90;;;;;;5090532;28;20662;-49
2022/09/29 07:23:18;;;;;;;2.90;2.80;;;9.50;99.90;;;;;;5087037;28;20669;-48
2022/09/29 07:25:46;;;;;;;3.80;3.60;;;9.50;99.90;;;;;;5092743;28;20270;-48
2022/09/29 07:28:13;;;;;;;2.80;2.60;;;9.50;99.90;;;;;;5092472;28;20199;-48
2022/09/29 07:30:40;;;;;;;3.10;2.90;;;9.60;99.90;;;;;;5092419;28;20670;-48
2022/09/29 07:33:07;;;;;;;3.27;3.07;;;9.60;99.90;;;;;;5091655;28;20226;-49
2022/09/29 07:35:34;;;;;;;4.03;3.77;;;9.60;99.90;;;;;;5087874;28;20210;-48
2022/09/29 07:38:01;;;;;;;2.73;2.63;;;9.60;99.90;;;;;;5085408;28;20286;-48
2022/09/29 07:40:30;;;;;;;5.73;3.07;;;9.70;99.90;;;;;;5089230;28;20282;-48
2022/09/29 07:42:59;;;;;;;3.00;2.73;;;9.70;99.90;;;;;;5090803;28;20692;-48
2022/09/29 07:45:26;;;;;;;3.17;2.53;;;9.60;99.90;;;;;;5084695;28;20201;-48
2022/09/29 07:47:56;;;;;;;2.83;2.60;;;9.60;99.90;;;;;;5088938;28;20269;-48
2022/09/29 07:50:23;;;;;;;3.43;1.90;;;9.60;99.90;;;;;;5084344;28;20235;-48
2022/09/29 07:52:51;;;;;;;7.83;6.43;;;9.60;99.90;;;;;;5089789;28;20209;-49
2022/09/29 07:55:20;;;;;;;5.53;4.90;;;9.60;99.90;;;;;;5090207;28;20203;-48
2022/09/29 07:57:48;;;;;;;4.70;3.77;;;9.60;99.90;;;;;;5087184;28;20221;-49
2022/09/29 08:00:16;;;;;;;3.83;2.97;;;9.60;99.90;;;;;;5082960;28;20235;-48
2022/09/29 08:02:43;;;;;;;2.70;2.60;;;9.60;99.90;;;;;;5082405;28;20234;-49
2022/09/29 08:05:10;;;;;;;4.20;2.93;;;9.60;99.90;;;;;;5088899;28;20226;-49
2022/09/29 08:07:37;;;;;;;2.23;2.13;;;9.60;99.90;;;;;;5088028;28;20656;-48
2022/09/29 08:10:05;;;;;;;2.60;2.10;;;9.70;99.90;;;;;;5086834;28;20212;-49
2022/09/29 08:12:32;;;;;;;3.70;2.77;;;9.80;99.90;;;;;;5087494;28;20198;-50
2022/09/29 08:15:01;;;;;;;1.93;1.87;;;9.80;99.90;;;;;;5084806;28;20207;-48
2022/09/29 08:17:28;;;;;;;2.27;1.80;;;9.90;99.90;;;;;;5085157;28;20226;-49
2022/09/29 08:19:55;;;;;;;1.57;1.47;;;9.90;99.90;;;;;;5084992;28;20223;-48
2022/09/29 08:22:22;;;;;;;1.30;0.87;;;9.80;99.90;;;;;;5081710;28;20207;-48
2022/09/29 08:24:49;;;;;;;1.17;1.17;;;9.80;99.90;;;;;;5069313;28;20248;-48
2022/09/29 08:27:16;;;;;;;1.30;1.30;;;9.90;99.90;;;;;;5069795;28;20196;-48
2022/09/29 08:29:43;;;;;;;1.17;0.87;;;10.00;99.90;;;;;;5072164;28;20273;-49
2022/09/29 08:32:11;;;;;;;1.40;1.00;;;10.10;99.90;;;;;;5071612;28;20204;-48
2022/09/29 08:34:39;;;;;;;0.67;0.67;;;10.30;99.90;;;;;;5069726;28;20271;-48
2022/09/29 08:37:06;;;;;;;1.40;1.30;;;10.40;99.90;;;;;;5070122;28;20219;-48
2022/09/29 08:39:34;;;;;;;1.03;1.00;;;10.30;99.90;;;;;;5071009;28;20217;-49
2022/09/29 08:42:11;;;;;;;3.47;1.73;;;10.30;99.90;;;;;;5070009;28;20262;-48
2022/09/29 08:44:43;;;;;;;3.60;1.27;;;10.40;99.90;;;;;;5068468;28;20199;-48
2022/09/29 08:47:20;;;;;;;0.97;0.80;;;10.40;99.90;;;;;;5069646;28;20203;-48
2022/09/29 08:49:52;;;;;;;0.67;0.67;;;10.50;99.90;;;;;;5075578;28;20258;-49
2022/09/29 08:52:22;;;;;;;0.80;0.80;;;10.50;99.90;;;;;;5076850;28;20197;-49
2022/09/29 08:54:55;;;;;;;1.17;1.17;;;10.60;99.90;;;;;;5070121;28;20233;-48
2022/09/29 08:57:23;;;;;;;0.80;0.70;;;10.60;99.90;;;;;;5071054;28;20712;-49
2022/09/29 08:59:54;;;;;;;0.50;0.50;;;10.60;99.90;;;;;;5089598;28;20215;-49
2022/09/29 09:02:52;;;;;;;1.50;1.10;;;10.60;99.90;;;;;;5071815;28;20208;-48
2022/09/29 09:05:28;;;;;;;0.67;0.67;;;10.60;99.90;;;;;;5087390;28;20811;-49
2022/09/29 09:08:03;;;;;;;0.83;0.83;;;10.60;99.90;;;;;;5087375;28;20207;-48
2022/09/29 09:10:39;;;;;;;1.23;1.13;;;10.60;99.90;;;;;;5073642;28;20195;-48
2022/09/29 09:13:31;;;;;;;1.60;1.50;;;10.60;99.90;;;;;;5067036;28;20206;-49
2022/09/29 09:16:14;;;;;;;2.07;1.97;;;10.60;99.90;;;;;;5068036;28;20203;-48
2022/09/29 09:18:58;;;;;;;2.17;2.03;;;10.60;99.90;;;;;;5071790;28;22179;-48
2022/09/29 09:21:34;;;;;;;3.50;3.20;;;10.70;99.90;;;;;;5073791;28;20608;-49
2022/09/29 09:24:11;;;;;;;2.70;2.40;;;10.90;99.90;;;;;;5081956;28;20269;-49
2022/09/29 09:26:41;;;;;;;1.83;1.83;;;10.90;99.90;;;;;;5071643;28;20199;-49
2022/09/29 09:29:17;;;;;;;1.60;1.60;;;10.90;99.90;;;;;;5071745;28;20219;-49
2022/09/29 09:31:48;;;;;;;4.93;1.33;;;10.80;99.90;;;;;;5072470;28;20206;-48
2022/09/29 09:34:21;;;;;;;1.03;0.60;;;10.80;99.90;;;;;;5074223;28;20214;-48
2022/09/29 09:36:54;;;;;;;0.97;0.70;;;10.90;99.90;;;;;;5075036;28;20271;-48
2022/09/29 09:39:27;;;;;;;0.80;0.80;;;11.00;99.90;;;;;;5075585;28;20227;-48
2022/09/29 09:41:56;;;;;;;1.20;1.20;;;11.10;99.90;;;;;;5073455;28;20274;-49
2022/09/29 09:44:30;;;;;;;2.03;1.20;;;11.00;99.90;;;;;;5071064;28;20217;-49
2022/09/29 09:47:00;;;;;;;0.93;0.90;;;11.20;99.90;;;;;;5074245;28;20191;-48
2022/09/29 09:49:35;;;;;;;1.33;0.80;;;11.20;99.90;;;;;;5073327;28;20232;-48
2022/09/29 09:52:04;;;;;;;1.27;1.27;;;11.10;99.90;;;;;;5078694;28;20198;-49
2022/09/29 09:54:35;;;;;;;1.50;1.50;;;11.00;99.90;;;;;;5077835;28;20302;-49
2022/09/29 09:57:31;;;;;;;3.40;1.63;;;11.10;99.90;;;;;;5070934;28;20393;-48
2022/09/29 10:00:07;;;;;;;1.50;1.40;;;11.10;99.90;;;;;;5074276;28;20616;-50
2022/09/29 10:02:34;;;;;;;2.40;2.20;;;11.10;99.90;;;;;;5087229;28;20575;-48
2022/09/29 10:05:02;;;;;;;2.50;2.40;;;11.10;99.90;;;;;;5083447;28;20196;-49
2022/09/29 10:07:31;;;;;;;2.83;2.33;;;11.20;99.90;;;;;;5084412;28;20205;-48
2022/09/29 10:10:03;;;;;;;2.27;1.80;;;11.20;99.90;;;;;;5085528;28;20320;-48
2022/09/29 10:12:30;;;;;;;2.90;2.70;;;11.10;99.90;;;;;;5084309;28;20207;-48
2022/09/29 10:15:04;;;;;;;2.13;2.03;;;11.00;99.90;;;;;;5091216;28;20248;-48
2022/09/29 10:17:37;;;;;;;1.00;1.00;;;11.00;99.90;;;;;;5074265;28;20225;-48
2022/09/29 10:20:07;;;;;;;1.47;1.40;;;11.20;99.90;;;;;;5082994;28;20273;-50
2022/09/29 10:22:35;;;;;;;1.93;1.73;;;11.10;99.90;;;;;;5081122;28;20203;-49
2022/09/29 10:25:08;;;;;;;1.83;1.60;;;11.10;99.90;;;;;;5085001;28;20267;-48
2022/09/29 10:27:39;;;;;;;1.37;1.00;;;11.10;99.90;;;;;;5078482;28;20665;-48
2022/09/29 10:30:33;;;;;;;1.20;1.20;;;11.10;99.90;;;;;;5076465;28;20277;-49
2022/09/29 10:33:04;;;;;;;0.80;0.80;;;11.20;99.90;;;;;;5076451;28;20207;-49
2022/09/29 10:35:37;;;;;;;0.77;0.77;;;11.30;99.90;;;;;;5091290;28;20203;-48
2022/09/29 10:38:08;;;;;;;2.10;1.00;;;11.20;99.90;;;;;;5086119;28;20216;-48
2022/09/29 10:40:35;;;;;;;1.13;0.80;;;11.20;99.90;;;;;;5082973;28;20219;-48
2022/09/29 10:43:24;;;;;;;2.07;0.97;;;11.30;99.90;;;;;;5077144;28;20199;-49
2022/09/29 10:45:57;;;;;;;1.10;1.10;;;11.40;99.90;;;;;;5078486;28;20238;-49
2022/09/29 10:48:25;;;;;;;1.20;1.10;;;11.40;99.90;;;;;;5084891;28;20294;-48
2022/09/29 10:50:56;;;;;;;1.50;1.00;;;11.30;99.90;;;;;;5087334;28;20235;-49
2022/09/29 10:53:37;;;;;;;2.70;1.17;;;11.10;99.90;;;;;;5081323;28;20699;-49
2022/09/29 10:56:15;;;;;;;1.27;1.27;;;11.20;99.90;;;;;;5081005;28;20275;-49
2022/09/29 10:58:44;;;;;;;1.80;1.23;;;11.00;99.90;;;;;;5081488;28;20257;-49
2022/09/29 11:01:14;;;;;;;1.07;0.97;;;11.00;99.90;;;;;;5091426;28;20660;-49
2022/09/29 11:03:48;;;;;;;1.10;0.60;;;11.00;99.90;;;;;;5084905;28;20723;-48
2022/09/29 11:06:17;;;;;;;1.27;0.83;;;10.90;99.90;;;;;;5082894;28;20198;-48
2022/09/29 11:08:59;;;;;;;0.50;0.50;;;10.70;99.90;;;;;;5085998;28;20287;-49
2022/09/29 11:11:28;;;;;;;2.07;0.87;;;10.70;99.90;;;;;;5088539;28;20591;-49
2022/09/29 11:13:57;;;;;;;1.37;1.07;;;10.70;99.90;;;;;;5079988;28;20211;-48
2022/09/29 11:16:32;;;;;;;1.97;1.10;;;10.70;99.90;;;;;;5078969;28;20269;-48
2022/09/29 11:19:03;;;;;;;1.43;0.70;;;10.70;99.90;;;;;;5084876;28;20265;-48
2022/09/29 11:22:07;;;;;;;0.90;0.90;;;10.80;99.90;;;;;;5087928;28;20210;-49
2022/09/29 11:25:03;;;;;;;1.10;1.10;;;10.80;99.90;;;;;;5077943;28;20218;-48
2022/09/29 11:27:43;;;;;;;1.03;1.03;;;10.80;99.90;;;;;;5071198;28;20204;-48
2022/09/29 11:30:14;;;;;;;1.97;1.20;;;10.70;99.90;;;;;;5081269;28;20652;-49
2022/09/29 11:33:03;;;;;;;1.57;1.47;;;10.70;99.90;;;;;;5083445;28;20261;-50
2022/09/29 11:35:45;;;;;;;1.63;1.63;;;10.70;99.90;;;;;;5078168;28;20205;-49
2022/09/29 11:38:36;;;;;;;2.00;1.97;;;10.80;99.90;;;;;;5084818;28;20226;-50
2022/09/29 11:41:19;;;;;;;2.50;2.10;;;10.90;99.90;;;;;;5092339;28;20545;-48
2022/09/29 11:43:50;;;;;;;2.90;1.60;;;11.00;99.90;;;;;;5077031;28;20207;-48
2022/09/29 11:46:37;;;;;;;1.80;1.70;;;11.10;99.90;;;;;;5079521;28;20270;-48
2022/09/29 11:49:35;;;;;;;1.13;1.10;;;11.20;99.90;;;;;;5083480;28;20308;-48
2022/09/29 11:52:19;;;;;;;1.57;1.47;;;11.40;99.90;;;;;;5070971;28;20197;-49
2022/09/29 11:55:05;;;;;;;6.47;5.83;;;11.40;99.90;;;;;;5080661;28;20204;-49
2022/09/29 11:57:44;;;;;;;3.30;3.20;;;11.50;99.90;;;;;;5078427;28;20227;-48
2022/09/29 12:00:14;;;;;;;3.07;2.87;;;11.50;99.90;;;;;;5084705;28;20222;-49
2022/09/29 12:03:03;;;;;;;3.27;3.07;;;11.50;99.90;;;;;;5083473;28;20200;-48
2022/09/29 12:05:44;;;;;;;3.93;3.73;;;11.60;99.90;;;;;;5070275;28;20203;-49
2022/09/29 12:08:22;;;;;;;3.17;2.97;;;11.60;99.90;;;;;;5071487;28;20276;-48
2022/09/29 12:10:58;;;;;;;1.73;1.67;;;11.70;99.90;;;;;;5070608;28;20661;-50
2022/09/29 12:13:40;;;;;;;1.40;1.40;;;11.70;99.90;;;;;;5069384;28;20670;-49
2022/09/29 12:16:11;;;;;;;1.40;1.30;;;11.80;99.90;;;;;;5068756;28;20197;-48
2022/09/29 12:18:43;;;;;;;1.20;1.20;;;11.90;99.90;;;;;;5070062;28;20226;-48
2022/09/29 12:21:12;;;;;;;1.00;1.00;;;11.90;99.90;;;;;;5075905;28;20214;-49
2022/09/29 12:23:44;;;;;;;1.93;1.80;;;11.90;99.90;;;;;;5069280;28;20198;-49
2022/09/29 12:26:16;;;;;;;1.63;1.53;;;12.00;99.90;;;;;;5069736;28;20208;-48
2022/09/29 12:28:49;;;;;;;1.57;1.47;;;12.10;99.90;;;;;;5072131;28;20225;-48
2022/09/29 12:31:23;;;;;;;1.60;1.50;;;12.30;99.90;;;;;;5082336;28;20669;-48
2022/09/29 12:33:53;;;;;;;2.00;1.37;;;12.40;99.90;;;;;;5070196;28;20197;-48
2022/09/29 12:36:49;;;;;;;1.27;1.00;;;12.30;99.90;;;;;;5068751;28;20748;-49
2022/09/29 12:39:39;;;;;;;0.50;0.50;;;12.50;99.90;;;;;;5070211;28;20710;-49
2022/09/29 12:42:32;;;;;;;1.07;0.83;;;12.50;99.90;;;;;;5070332;28;20227;-48
2022/09/29 12:45:06;;;;;;;0.80;0.80;;;12.50;99.90;;;;;;5069030;28;20214;-48
2022/09/29 12:47:56;;;;;;;0.73;0.73;;;12.50;99.90;;;;;;5071522;28;20199;-48
2022/09/29 12:50:28;;;;;;;1.40;0.70;;;12.40;99.90;;;;;;5070184;28;20244;-49
2022/09/29 12:53:00;;;;;;;0.77;0.50;;;12.30;99.90;;;;;;5081762;28;20204;-48
2022/09/29 12:55:41;;;;;;;0.80;0.67;;;12.30;99.90;;;;;;5075897;28;20207;-48
2022/09/29 12:58:18;;;;;;;0.90;0.63;;;12.30;99.90;;;;;;5071279;28;20232;-49
2022/09/29 13:00:54;;;;;;;0.63;0.63;;;12.30;99.90;;;;;;5073187;28;20222;-49
2022/09/29 13:03:56;;;;;;;0.70;0.70;;;12.20;99.90;;;;;;5075535;28;20212;-48
2022/09/29 13:07:04;;;;;;;1.67;0.50;;;12.20;99.90;;;;;;5071827;28;20284;-48
2022/09/29 13:09:52;;;;;;;0.63;0.63;;;12.20;99.90;;;;;;5089456;28;20300;-48
2022/09/29 13:12:37;;;;;;;0.77;0.77;;;12.20;99.90;;;;;;5071693;28;20200;-49
2022/09/29 13:15:35;;;;;;;0.70;0.70;;;12.20;99.90;;;;;;5072556;28;20199;-47
2022/09/29 13:18:23;;;;;;;0.50;0.50;;;12.20;99.90;;;;;;5072869;28;20596;-49
2022/09/29 13:21:05;;;;;;;0.87;0.67;;;12.10;99.90;;;;;;5073626;28;20251;-48